sensor_id;sensor_type;location;lat;lon;timestamp;pressure;altitude;pressure_sealevel;temperature;humidity
15056;BME280;7626;42.674;23.284;2024-01-15T00:00:23;58835.63;;;-147.83;100.00
15056;BME280;7626;42.674;23.284;2024-01-15T00:02:50;58835.63;;;-147.83;100.00
15056;BME280;7626;42.674;23.284;2024-01-15T00:05:17;58835.63;;;-147.83;100.00
15056;BME280;7626;42.674;23.284;2024-01-15T00:07:44;58835.63;;;-147.83;100.00
15056;BME280;7626;42.674;23.284;2024-01-15T00:10:10;58835.63;;;-147.83;100.00
15056;BME280;7626;42.674;23.284;2024-01-15T00:12:37;58835.63;;;-147.83;100.00
15056;BME280;7626;42.674;23.284;2024-01-15T00:15:05;58835.63;;;-147.83;100.00
15056;BME280;7626;42.674;23.284;2024-01-15T00:17:34;58835.63;;;-147.83;100.00
15056;BME280;7626;42.674;23.284;2024-01-15T00:20:00;58835.63;;;-147.83;100.00
15056;BME280;7626;42.674;23.284;2024-01-15T00:22:27;58835.63;;;-147.83;100.00
15056;BME280;7626;42.674;23.284;2024-01-15T00:24:54;58835.63;;;-147.83;100.00
15056;BME280;7626;42.674;23.284;2024-01-15T00:27:21;58835.63;;;-147.83;100.00
15056;BME280;7626;42.674;23.284;2024-01-15T00:29:49;58835.63;;;-147.83;100.00
15056;BME280;7626;42.674;23.284;2024-01-15T00:32:17;58835.63;;;-147.83;100.00
15056;BME280;7626;42.674;23.284;2024-01-15T00:34:46;58835.63;;;-147.83;100.00
15056;BME280;7626;42.674;23.284;2024-01-15T00:37:13;58835.63;;;-147.83;100.00
15056;BME280;7626;42.674;23.284;2024-01-15T00:39:40;58835.63;;;-147.83;100.00
15056;BME280;7626;42.674;23.284;2024-01-15T00:42:07;58835.63;;;-147.83;100.00
15056;BME280;7626;42.674;23.284;2024-01-15T00:44:35;58835.63;;;-147.83;100.00
15056;BME280;7626;42.674;23.284;2024-01-15T00:47:02;58835.63;;;-147.83;100.00
15056;BME280;7626;42.674;23.284;2024-01-15T00:49:29;58835.63;;;-147.83;100.00
15056;BME280;7626;42.674;23.284;2024-01-15T00:51:57;58835.63;;;-147.83;100.00
15056;BME280;7626;42.674;23.284;2024-01-15T00:54:24;58835.63;;;-147.83;100.00
15056;BME280;7626;42.674;23.284;2024-01-15T00:56:51;58835.63;;;-147.83;100.00
15056;BME280;7626;42.674;23.284;2024-01-15T00:59:18;58835.63;;;-147.83;100.00
15056;BME280;7626;42.674;23.284;2024-01-15T01:01:46;58835.63;;;-147.83;100.00
15056;BME280;7626;42.674;23.284;2024-01-15T01:04:13;58835.63;;;-147.83;100.00
15056;BME280;7626;42.674;23.284;2024-01-15T01:06:40;58835.63;;;-147.83;100.00
15056;BME280;7626;42.674;23.284;2024-01-15T01:09:08;58835.63;;;-147.83;100.00
15056;BME280;7626;42.674;23.284;2024-01-15T01:11:35;58835.63;;;-147.83;100.00
15056;BME280;7626;42.674;23.284;2024-01-15T01:14:02;58835.63;;;-147.83;100.00
15056;BME280;7626;42.674;23.284;2024-01-15T01:16:29;58835.63;;;-147.83;100.00
15056;BME280;7626;42.674;23.284;2024-01-15T01:18:57;58835.63;;;-147.83;100.00
15056;BME280;7626;42.674;23.284;2024-01-15T01:21:23;58835.63;;;-147.83;100.00
15056;BME280;7626;42.674;23.284;2024-01-15T01:23:50;58835.63;;;-147.83;100.00
15056;BME280;7626;42.674;23.284;2024-01-15T01:26:19;58835.63;;;-147.83;100.00
15056;BME280;7626;42.674;23.284;2024-01-15T01:28:45;58835.63;;;-147.83;100.00
15056;BME280;7626;42.674;23.284;2024-01-15T01:31:12;58835.63;;;-147.83;100.00
15056;BME280;7626;42.674;23.284;2024-01-15T01:33:39;58835.63;;;-147.83;100.00
15056;BME280;7626;42.674;23.284;2024-01-15T01:36:07;58835.63;;;-147.83;100.00
15056;BME280;7626;42.674;23.284;2024-01-15T01:38:35;58835.63;;;-147.83;100.00
15056;BME280;7626;42.674;23.284;2024-01-15T01:41:02;58835.63;;;-147.83;100.00
15056;BME280;7626;42.674;23.284;2024-01-15T01:43:30;58835.63;;;-147.83;100.00
15056;BME280;7626;42.674;23.284;2024-01-15T01:45:57;58835.63;;;-147.83;100.00
15056;BME280;7626;42.674;23.284;2024-01-15T01:48:25;58835.63;;;-147.83;100.00
15056;BME280;7626;42.674;23.284;2024-01-15T01:50:52;58835.63;;;-147.83;100.00
15056;BME280;7626;42.674;23.284;2024-01-15T01:53:21;58835.63;;;-147.83;100.00
15056;BME280;7626;42.674;23.284;2024-01-15T01:55:48;58835.63;;;-147.83;100.00
15056;BME280;7626;42.674;23.284;2024-01-15T01:58:17;58835.63;;;-147.83;100.00
15056;BME280;7626;42.674;23.284;2024-01-15T02:00:46;58835.63;;;-147.83;100.00
15056;BME280;7626;42.674;23.284;2024-01-15T02:03:13;58835.63;;;-147.83;100.00
15056;BME280;7626;42.674;23.284;2024-01-15T02:05:42;58835.63;;;-147.83;100.00
15056;BME280;7626;42.674;23.284;2024-01-15T02:08:10;58835.63;;;-147.83;100.00
15056;BME280;7626;42.674;23.284;2024-01-15T02:10:37;58835.63;;;-147.83;100.00
15056;BME280;7626;42.674;23.284;2024-01-15T02:13:04;58835.63;;;-147.83;100.00
15056;BME280;7626;42.674;23.284;2024-01-15T02:15:31;58835.63;;;-147.83;100.00
15056;BME280;7626;42.674;23.284;2024-01-15T02:18:00;58835.63;;;-147.83;100.00
15056;BME280;7626;42.674;23.284;2024-01-15T02:20:28;58835.63;;;-147.83;100.00
15056;BME280;7626;42.674;23.284;2024-01-15T02:23:07;58835.63;;;-147.83;100.00
15056;BME280;7626;42.674;23.284;2024-01-15T02:25:35;58835.63;;;-147.83;100.00
15056;BME280;7626;42.674;23.284;2024-01-15T02:28:02;58835.63;;;-147.83;100.00
15056;BME280;7626;42.674;23.284;2024-01-15T02:30:30;58835.63;;;-147.83;100.00
15056;BME280;7626;42.674;23.284;2024-01-15T02:32:58;58835.63;;;-147.83;100.00
15056;BME280;7626;42.674;23.284;2024-01-15T02:35:24;58835.63;;;-147.83;100.00
15056;BME280;7626;42.674;23.284;2024-01-15T02:37:51;58835.63;;;-147.83;100.00
15056;BME280;7626;42.674;23.284;2024-01-15T02:40:20;58835.63;;;-147.83;100.00
15056;BME280;7626;42.674;23.284;2024-01-15T02:42:47;58835.63;;;-147.83;100.00
15056;BME280;7626;42.674;23.284;2024-01-15T02:45:14;58835.63;;;-147.83;100.00
15056;BME280;7626;42.674;23.284;2024-01-15T02:47:41;58835.63;;;-147.83;100.00
15056;BME280;7626;42.674;23.284;2024-01-15T02:50:08;58835.63;;;-147.83;100.00
15056;BME280;7626;42.674;23.284;2024-01-15T02:52:35;58835.63;;;-147.83;100.00
15056;BME280;7626;42.674;23.284;2024-01-15T02:55:02;58835.63;;;-147.83;100.00
15056;BME280;7626;42.674;23.284;2024-01-15T02:57:30;58835.63;;;-147.83;100.00
15056;BME280;7626;42.674;23.284;2024-01-15T02:59:57;58835.63;;;-147.83;100.00
15056;BME280;7626;42.674;23.284;2024-01-15T03:02:24;58835.63;;;-147.83;100.00
15056;BME280;7626;42.674;23.284;2024-01-15T03:04:51;58835.63;;;-147.83;100.00
15056;BME280;7626;42.674;23.284;2024-01-15T03:07:18;58835.63;;;-147.83;100.00
15056;BME280;7626;42.674;23.284;2024-01-15T03:09:45;58835.63;;;-147.83;100.00
15056;BME280;7626;42.674;23.284;2024-01-15T03:12:12;58835.63;;;-147.83;100.00
15056;BME280;7626;42.674;23.284;2024-01-15T03:14:40;58835.63;;;-147.83;100.00
15056;BME280;7626;42.674;23.284;2024-01-15T03:17:07;58835.63;;;-147.83;100.00
15056;BME280;7626;42.674;23.284;2024-01-15T03:19:35;58835.63;;;-147.83;100.00
15056;BME280;7626;42.674;23.284;2024-01-15T03:22:02;58835.63;;;-147.83;100.00
15056;BME280;7626;42.674;23.284;2024-01-15T03:24:31;58835.63;;;-147.83;100.00
15056;BME280;7626;42.674;23.284;2024-01-15T03:26:58;58835.63;;;-147.83;100.00
15056;BME280;7626;42.674;23.284;2024-01-15T03:29:25;58835.63;;;-147.83;100.00
15056;BME280;7626;42.674;23.284;2024-01-15T03:31:54;58835.63;;;-147.83;100.00
15056;BME280;7626;42.674;23.284;2024-01-15T03:34:21;58835.63;;;-147.83;100.00
15056;BME280;7626;42.674;23.284;2024-01-15T03:36:48;58835.63;;;-147.83;100.00
15056;BME280;7626;42.674;23.284;2024-01-15T03:41:41;94018.69;;;5.16;nan
15056;BME280;7626;42.674;23.284;2024-01-15T03:44:08;94011.50;;;5.21;nan
15056;BME280;7626;42.674;23.284;2024-01-15T03:46:35;94014.38;;;5.16;nan
15056;BME280;7626;42.674;23.284;2024-01-15T03:49:03;94015.41;;;5.14;nan
15056;BME280;7626;42.674;23.284;2024-01-15T03:51:30;94015.19;;;5.17;nan
15056;BME280;7626;42.674;23.284;2024-01-15T03:53:57;94024.78;;;5.15;nan
15056;BME280;7626;42.674;23.284;2024-01-15T03:56:24;94016.63;;;5.21;nan
15056;BME280;7626;42.674;23.284;2024-01-15T03:58:51;94015.72;;;5.22;nan
15056;BME280;7626;42.674;23.284;2024-01-15T04:01:18;94021.78;;;5.21;nan
15056;BME280;7626;42.674;23.284;2024-01-15T04:03:45;94010.97;;;5.16;nan
15056;BME280;7626;42.674;23.284;2024-01-15T04:06:13;93994.94;;;5.12;nan
15056;BME280;7626;42.674;23.284;2024-01-15T04:08:40;93993.41;;;5.10;nan
15056;BME280;7626;42.674;23.284;2024-01-15T04:11:07;93998.00;;;5.05;nan
15056;BME280;7626;42.674;23.284;2024-01-15T04:13:34;94002.16;;;5.07;nan
15056;BME280;7626;42.674;23.284;2024-01-15T04:16:01;93990.84;;;5.10;nan
15056;BME280;7626;42.674;23.284;2024-01-15T04:18:28;94000.28;;;5.09;nan
15056;BME280;7626;42.674;23.284;2024-01-15T04:20:55;93995.44;;;5.05;nan
15056;BME280;7626;42.674;23.284;2024-01-15T04:23:24;93996.38;;;5.04;nan
15056;BME280;7626;42.674;23.284;2024-01-15T04:25:50;94005.00;;;5.03;nan
15056;BME280;7626;42.674;23.284;2024-01-15T04:28:17;94006.38;;;5.08;nan
15056;BME280;7626;42.674;23.284;2024-01-15T04:30:44;94003.91;;;5.07;nan
15056;BME280;7626;42.674;23.284;2024-01-15T04:33:11;94005.63;;;5.06;nan
15056;BME280;7626;42.674;23.284;2024-01-15T04:35:38;94010.03;;;5.04;nan
15056;BME280;7626;42.674;23.284;2024-01-15T04:38:05;94000.38;;;5.08;nan
15056;BME280;7626;42.674;23.284;2024-01-15T04:40:33;94004.72;;;5.07;nan
15056;BME280;7626;42.674;23.284;2024-01-15T04:43:00;94004.72;;;5.07;nan
15056;BME280;7626;42.674;23.284;2024-01-15T04:45:27;94002.16;;;5.07;nan
15056;BME280;7626;42.674;23.284;2024-01-15T04:47:55;93989.59;;;5.03;nan
15056;BME280;7626;42.674;23.284;2024-01-15T04:50:23;94000.81;;;5.02;nan
15056;BME280;7626;42.674;23.284;2024-01-15T04:52:50;93988.38;;;4.95;nan
15056;BME280;7626;42.674;23.284;2024-01-15T04:55:17;93974.47;;;4.98;nan
15056;BME280;7626;42.674;23.284;2024-01-15T04:57:46;93976.34;;;4.96;nan
15056;BME280;7626;42.674;23.284;2024-01-15T05:00:13;93976.94;;;4.87;nan
15056;BME280;7626;42.674;23.284;2024-01-15T05:02:40;93967.59;;;4.86;nan
15056;BME280;7626;42.674;23.284;2024-01-15T05:05:07;93973.84;;;4.82;nan
15056;BME280;7626;42.674;23.284;2024-01-15T05:07:34;93976.22;;;4.85;nan
15056;BME280;7626;42.674;23.284;2024-01-15T05:10:01;93969.13;;;4.88;nan
15056;BME280;7626;42.674;23.284;2024-01-15T05:12:29;93964.00;;;4.88;nan
15056;BME280;7626;42.674;23.284;2024-01-15T05:14:57;93966.03;;;4.83;nan
15056;BME280;7626;42.674;23.284;2024-01-15T05:17:24;93967.00;;;4.82;nan
15056;BME280;7626;42.674;23.284;2024-01-15T05:19:51;93973.84;;;4.82;nan
15056;BME280;7626;42.674;23.284;2024-01-15T05:22:18;93968.00;;;4.79;nan
15056;BME280;7626;42.674;23.284;2024-01-15T05:24:46;93975.59;;;4.81;nan
15056;BME280;7626;42.674;23.284;2024-01-15T05:27:13;93975.59;;;4.81;nan
15056;BME280;7626;42.674;23.284;2024-01-15T05:29:40;93973.56;;;4.86;nan
15056;BME280;7626;42.674;23.284;2024-01-15T05:32:08;93966.88;;;4.84;nan
15056;BME280;7626;42.674;23.284;2024-01-15T05:34:35;93968.72;;;4.82;nan
15056;BME280;7626;42.674;23.284;2024-01-15T05:37:02;93970.78;;;4.89;nan
15056;BME280;7626;42.674;23.284;2024-01-15T05:39:29;93961.94;;;4.81;nan
15056;BME280;7626;42.674;23.284;2024-01-15T05:41:57;93973.44;;;4.75;nan
15056;BME280;7626;42.674;23.284;2024-01-15T05:44:24;93956.19;;;4.77;nan
15056;BME280;7626;42.674;23.284;2024-01-15T05:46:53;93956.28;;;4.75;nan
15056;BME280;7626;42.674;23.284;2024-01-15T05:49:21;93947.25;;;4.83;nan
15056;BME280;7626;42.674;23.284;2024-01-15T05:51:48;93950.94;;;4.78;nan
15056;BME280;7626;42.674;23.284;2024-01-15T05:54:16;93937.81;;;4.83;nan
15056;BME280;7626;42.674;23.284;2024-01-15T05:56:43;93943.88;;;4.82;nan
15056;BME280;7626;42.674;23.284;2024-01-15T05:59:09;93952.00;;;4.89;nan
15056;BME280;7626;42.674;23.284;2024-01-15T06:01:36;93946.97;;;4.87;nan
15056;BME280;7626;42.674;23.284;2024-01-15T06:04:03;93950.25;;;4.89;nan
15056;BME280;7626;42.674;23.284;2024-01-15T06:06:32;93951.38;;;4.85;nan
15056;BME280;7626;42.674;23.284;2024-01-15T06:08:59;93940.78;;;4.90;nan
15056;BME280;7626;42.674;23.284;2024-01-15T06:11:30;93948.16;;;4.82;nan
15056;BME280;7626;42.674;23.284;2024-01-15T06:13:57;93943.69;;;4.85;nan
15056;BME280;7626;42.674;23.284;2024-01-15T06:16:24;93946.34;;;4.84;nan
15056;BME280;7626;42.674;23.284;2024-01-15T06:18:51;93952.88;;;4.75;nan
15056;BME280;7626;42.674;23.284;2024-01-15T06:21:18;93952.50;;;4.81;nan
15056;BME280;7626;42.674;23.284;2024-01-15T06:23:46;93939.47;;;4.84;nan
15056;BME280;7626;42.674;23.284;2024-01-15T06:26:13;93934.34;;;4.97;nan
15056;BME280;7626;42.674;23.284;2024-01-15T06:28:40;93930.81;;;4.98;nan
15056;BME280;7626;42.674;23.284;2024-01-15T06:31:07;93939.56;;;4.95;nan
15056;BME280;7626;42.674;23.284;2024-01-15T06:33:34;93945.53;;;4.96;nan
15056;BME280;7626;42.674;23.284;2024-01-15T06:36:01;93951.06;;;5.03;nan
15056;BME280;7626;42.674;23.284;2024-01-15T06:38:28;93949.22;;;5.05;nan
15056;BME280;7626;42.674;23.284;2024-01-15T06:40:56;93945.03;;;5.04;nan
15056;BME280;7626;42.674;23.284;2024-01-15T06:43:23;93951.19;;;5.14;nan
15056;BME280;7626;42.674;23.284;2024-01-15T06:45:50;93951.97;;;5.53;nan
15056;BME280;7626;42.674;23.284;2024-01-15T06:48:17;93950.53;;;5.36;nan
15056;BME280;7626;42.674;23.284;2024-01-15T06:50:44;93953.84;;;5.38;nan
15056;BME280;7626;42.674;23.284;2024-01-15T06:53:11;93947.25;;;5.34;nan
15056;BME280;7626;42.674;23.284;2024-01-15T06:55:38;93947.25;;;5.34;nan
15056;BME280;7626;42.674;23.284;2024-01-15T06:58:07;93954.75;;;5.37;nan
15056;BME280;7626;42.674;23.284;2024-01-15T07:00:34;93949.22;;;5.30;nan
15056;BME280;7626;42.674;23.284;2024-01-15T07:03:00;93961.25;;;5.30;nan
15056;BME280;7626;42.674;23.284;2024-01-15T07:05:27;93966.19;;;5.33;nan
15056;BME280;7626;42.674;23.284;2024-01-15T07:07:55;93967.50;;;5.39;nan
15056;BME280;7626;42.674;23.284;2024-01-15T07:10:22;93977.38;;;5.45;nan
15056;BME280;7626;42.674;23.284;2024-01-15T07:12:49;93965.25;;;5.47;nan
15056;BME280;7626;42.674;23.284;2024-01-15T07:15:17;93967.59;;;5.50;nan
15056;BME280;7626;42.674;23.284;2024-01-15T07:17:44;93969.56;;;5.46;nan
15056;BME280;7626;42.674;23.284;2024-01-15T07:20:11;93959.09;;;5.49;nan
15056;BME280;7626;42.674;23.284;2024-01-15T07:22:38;93952.78;;;5.53;nan
15056;BME280;7626;42.674;23.284;2024-01-15T07:25:06;93953.19;;;5.47;nan
15056;BME280;7626;42.674;23.284;2024-01-15T07:27:33;93954.97;;;5.47;nan
15056;BME280;7626;42.674;23.284;2024-01-15T07:30:00;93956.50;;;5.49;nan
15056;BME280;7626;42.674;23.284;2024-01-15T07:32:30;93952.28;;;5.48;nan
15056;BME280;7626;42.674;23.284;2024-01-15T07:34:58;93934.91;;;5.52;nan
15056;BME280;7626;42.674;23.284;2024-01-15T07:37:25;93928.00;;;5.52;nan
15056;BME280;7626;42.674;23.284;2024-01-15T07:39:52;93936.34;;;5.56;nan
15056;BME280;7626;42.674;23.284;2024-01-15T07:42:19;93940.63;;;5.56;nan
15056;BME280;7626;42.674;23.284;2024-01-15T07:44:46;93947.22;;;5.60;nan
15056;BME280;7626;42.674;23.284;2024-01-15T07:47:13;93945.47;;;5.60;nan
15056;BME280;7626;42.674;23.284;2024-01-15T07:49:41;93945.25;;;5.63;nan
15056;BME280;7626;42.674;23.284;2024-01-15T07:52:10;93962.75;;;5.71;nan
15056;BME280;7626;42.674;23.284;2024-01-15T07:54:38;93960.88;;;5.73;nan
15056;BME280;7626;42.674;23.284;2024-01-15T07:57:05;93948.03;;;5.73;nan
15056;BME280;7626;42.674;23.284;2024-01-15T07:59:32;93920.66;;;5.72;nan
15056;BME280;7626;42.674;23.284;2024-01-15T08:01:59;93928.03;;;5.77;nan
15056;BME280;7626;42.674;23.284;2024-01-15T08:04:26;93919.72;;;5.73;nan
15056;BME280;7626;42.674;23.284;2024-01-15T08:06:54;93924.78;;;5.75;nan
15056;BME280;7626;42.674;23.284;2024-01-15T08:09:22;93928.75;;;5.79;nan
15056;BME280;7626;42.674;23.284;2024-01-15T08:11:49;93950.16;;;5.79;nan
15056;BME280;7626;42.674;23.284;2024-01-15T08:14:16;93944.38;;;5.88;nan
15056;BME280;7626;42.674;23.284;2024-01-15T08:16:43;93948.09;;;5.97;nan
15056;BME280;7626;42.674;23.284;2024-01-15T08:19:10;93951.97;;;6.03;nan
15056;BME280;7626;42.674;23.284;2024-01-15T08:21:37;93947.63;;;6.03;nan
15056;BME280;7626;42.674;23.284;2024-01-15T08:24:06;93950.84;;;6.07;nan
15056;BME280;7626;42.674;23.284;2024-01-15T08:26:33;93956.47;;;6.12;nan
15056;BME280;7626;42.674;23.284;2024-01-15T08:29:00;93960.69;;;6.13;nan
15056;BME280;7626;42.674;23.284;2024-01-15T08:31:27;93958.38;;;6.21;nan
15056;BME280;7626;42.674;23.284;2024-01-15T08:33:54;93951.50;;;6.22;nan
15056;BME280;7626;42.674;23.284;2024-01-15T08:36:21;93931.63;;;6.24;nan
15056;BME280;7626;42.674;23.284;2024-01-15T08:38:49;93934.09;;;6.25;nan
15056;BME280;7626;42.674;23.284;2024-01-15T08:41:18;93921.00;;;6.29;nan
15056;BME280;7626;42.674;23.284;2024-01-15T08:43:45;93927.56;;;6.33;nan
15056;BME280;7626;42.674;23.284;2024-01-15T08:46:12;93919.13;;;6.31;nan
15056;BME280;7626;42.674;23.284;2024-01-15T08:48:39;93925.19;;;6.30;nan
15056;BME280;7626;42.674;23.284;2024-01-15T08:51:06;93929.47;;;6.42;nan
15056;BME280;7626;42.674;23.284;2024-01-15T08:53:33;93919.06;;;6.43;nan
15056;BME280;7626;42.674;23.284;2024-01-15T08:56:00;93917.31;;;6.44;nan
15056;BME280;7626;42.674;23.284;2024-01-15T08:58:28;93912.84;;;6.46;nan
15056;BME280;7626;42.674;23.284;2024-01-15T09:00:55;93899.06;;;6.47;nan
15056;BME280;7626;42.674;23.284;2024-01-15T09:03:22;93891.00;;;6.52;nan
15056;BME280;7626;42.674;23.284;2024-01-15T09:05:49;93900.03;;;6.57;nan
15056;BME280;7626;42.674;23.284;2024-01-15T09:08:16;93889.50;;;6.60;nan
15056;BME280;7626;42.674;23.284;2024-01-15T09:10:43;93876.50;;;6.62;nan
15056;BME280;7626;42.674;23.284;2024-01-15T09:13:11;93853.81;;;6.67;nan
15056;BME280;7626;42.674;23.284;2024-01-15T09:15:39;93846.31;;;6.75;nan
15056;BME280;7626;42.674;23.284;2024-01-15T09:18:06;93851.25;;;6.78;nan
15056;BME280;7626;42.674;23.284;2024-01-15T09:20:33;93849.94;;;6.84;nan
15056;BME280;7626;42.674;23.284;2024-01-15T09:23:00;93840.97;;;7.01;nan
15056;BME280;7626;42.674;23.284;2024-01-15T09:25:27;93842.00;;;7.10;nan
15056;BME280;7626;42.674;23.284;2024-01-15T09:27:54;93833.94;;;7.14;nan
15056;BME280;7626;42.674;23.284;2024-01-15T09:30:21;93834.75;;;7.15;nan
15056;BME280;7626;42.674;23.284;2024-01-15T09:32:49;93841.19;;;7.87;nan
15056;BME280;7626;42.674;23.284;2024-01-15T09:35:16;93821.59;;;9.01;nan
15056;BME280;7626;42.674;23.284;2024-01-15T09:37:43;93804.31;;;9.52;nan
15056;BME280;7626;42.674;23.284;2024-01-15T09:40:13;93817.47;;;9.99;nan
15056;BME280;7626;42.674;23.284;2024-01-15T09:42:41;93812.47;;;10.37;nan
15056;BME280;7626;42.674;23.284;2024-01-15T09:45:09;93817.63;;;10.66;nan
15056;BME280;7626;42.674;23.284;2024-01-15T09:47:36;93801.59;;;10.80;nan
15056;BME280;7626;42.674;23.284;2024-01-15T09:50:06;93787.19;;;11.05;nan
15056;BME280;7626;42.674;23.284;2024-01-15T09:52:34;93778.38;;;11.26;nan
15056;BME280;7626;42.674;23.284;2024-01-15T09:55:03;93771.28;;;11.46;nan
15056;BME280;7626;42.674;23.284;2024-01-15T09:57:31;93777.63;;;11.62;nan
15056;BME280;7626;42.674;23.284;2024-01-15T09:59:59;93772.09;;;11.74;nan
15056;BME280;7626;42.674;23.284;2024-01-15T10:02:30;93777.84;;;11.96;nan
15056;BME280;7626;42.674;23.284;2024-01-15T10:04:57;93783.41;;;12.01;nan
15056;BME280;7626;42.674;23.284;2024-01-15T10:07:26;93779.81;;;11.84;nan
15056;BME280;7626;42.674;23.284;2024-01-15T10:09:53;93770.50;;;11.91;nan
15056;BME280;7626;42.674;23.284;2024-01-15T10:12:21;93753.91;;;12.10;nan
15056;BME280;7626;42.674;23.284;2024-01-15T10:14:49;93763.47;;;12.28;nan
15056;BME280;7626;42.674;23.284;2024-01-15T10:17:17;93744.84;;;12.32;nan
15056;BME280;7626;42.674;23.284;2024-01-15T10:19:45;93752.91;;;12.47;nan
15056;BME280;7626;42.674;23.284;2024-01-15T10:22:13;93742.31;;;12.67;nan
15056;BME280;7626;42.674;23.284;2024-01-15T10:24:41;93738.53;;;12.61;nan
15056;BME280;7626;42.674;23.284;2024-01-15T10:27:09;93727.50;;;12.67;nan
15056;BME280;7626;42.674;23.284;2024-01-15T10:29:37;93714.38;;;12.69;nan
15056;BME280;7626;42.674;23.284;2024-01-15T10:32:06;93718.66;;;12.78;nan
15056;BME280;7626;42.674;23.284;2024-01-15T10:34:34;93724.59;;;12.70;nan
15056;BME280;7626;42.674;23.284;2024-01-15T10:37:04;93716.41;;;12.57;nan
15056;BME280;7626;42.674;23.284;2024-01-15T10:39:31;93721.56;;;12.49;nan
15056;BME280;7626;42.674;23.284;2024-01-15T10:41:59;93714.28;;;12.52;nan
15056;BME280;7626;42.674;23.284;2024-01-15T10:44:27;93724.75;;;12.43;nan
15056;BME280;7626;42.674;23.284;2024-01-15T10:46:55;93727.31;;;12.34;nan
15056;BME280;7626;42.674;23.284;2024-01-15T10:49:23;93712.75;;;12.15;nan
15056;BME280;7626;42.674;23.284;2024-01-15T10:51:52;93699.47;;;12.01;nan
15056;BME280;7626;42.674;23.284;2024-01-15T10:54:20;93696.53;;;11.86;nan
15056;BME280;7626;42.674;23.284;2024-01-15T10:56:50;93695.59;;;11.87;nan
15056;BME280;7626;42.674;23.284;2024-01-15T10:59:20;93701.06;;;11.84;nan
15056;BME280;7626;42.674;23.284;2024-01-15T11:01:49;93695.97;;;11.74;nan
15056;BME280;7626;42.674;23.284;2024-01-15T11:04:16;93702.50;;;11.60;nan
15056;BME280;7626;42.674;23.284;2024-01-15T11:06:45;93687.34;;;11.55;nan
15056;BME280;7626;42.674;23.284;2024-01-15T11:09:13;93673.28;;;11.76;nan
15056;BME280;7626;42.674;23.284;2024-01-15T11:11:41;93687.88;;;11.77;nan
15056;BME280;7626;42.674;23.284;2024-01-15T11:14:10;93676.31;;;11.71;nan
15056;BME280;7626;42.674;23.284;2024-01-15T11:16:57;93672.88;;;11.89;nan
15056;BME280;7626;42.674;23.284;2024-01-15T11:19:24;93671.25;;;11.88;nan
15056;BME280;7626;42.674;23.284;2024-01-15T11:21:52;93669.31;;;12.08;nan
15056;BME280;7626;42.674;23.284;2024-01-15T11:24:34;93663.75;;;12.03;nan
15056;BME280;7626;42.674;23.284;2024-01-15T11:27:02;93656.53;;;12.14;nan
15056;BME280;7626;42.674;23.284;2024-01-15T11:29:30;93670.13;;;12.08;nan
15056;BME280;7626;42.674;23.284;2024-01-15T11:32:06;93660.44;;;11.92;nan
15056;BME280;7626;42.674;23.284;2024-01-15T11:35:06;93662.81;;;11.68;nan
15056;BME280;7626;42.674;23.284;2024-01-15T11:40:38;93661.03;;;11.32;nan
15056;BME280;7626;42.674;23.284;2024-01-15T11:43:05;93651.00;;;11.19;nan
15056;BME280;7626;42.674;23.284;2024-01-15T11:45:32;93657.00;;;11.02;nan
15056;BME280;7626;42.674;23.284;2024-01-15T11:48:14;93649.56;;;10.89;nan
15056;BME280;7626;42.674;23.284;2024-01-15T11:50:42;93651.97;;;10.73;nan
15056;BME280;7626;42.674;23.284;2024-01-15T11:53:24;93636.31;;;10.64;nan
15056;BME280;7626;42.674;23.284;2024-01-15T11:55:57;93634.19;;;10.50;nan
15056;BME280;7626;42.674;23.284;2024-01-15T11:58:24;93631.34;;;10.43;nan
15056;BME280;7626;42.674;23.284;2024-01-15T12:00:52;93622.09;;;10.31;nan
15056;BME280;7626;42.674;23.284;2024-01-15T12:03:22;93631.41;;;10.24;nan
15056;BME280;7626;42.674;23.284;2024-01-15T12:05:49;93625.31;;;10.15;nan
15056;BME280;7626;42.674;23.284;2024-01-15T12:08:21;93626.00;;;10.07;nan
15056;BME280;7626;42.674;23.284;2024-01-15T12:10:48;93622.06;;;10.03;nan
15056;BME280;7626;42.674;23.284;2024-01-15T12:13:15;93583.50;;;10.00;nan
15056;BME280;7626;42.674;23.284;2024-01-15T12:15:43;93604.63;;;9.95;nan
15056;BME280;7626;42.674;23.284;2024-01-15T12:18:12;93619.38;;;9.85;nan
15056;BME280;7626;42.674;23.284;2024-01-15T15:27:18;93466.25;;;8.86;nan
15056;BME280;7626;42.674;23.284;2024-01-15T15:29:46;93479.84;;;8.88;nan
15056;BME280;7626;42.674;23.284;2024-01-15T15:32:17;93466.09;;;8.87;nan
15056;BME280;7626;42.674;23.284;2024-01-15T15:34:45;93473.31;;;8.83;nan
15056;BME280;7626;42.674;23.284;2024-01-15T15:37:14;93472.47;;;8.83;nan
15056;BME280;7626;42.674;23.284;2024-01-15T15:39:43;93477.50;;;8.84;nan
15056;BME280;7626;42.674;23.284;2024-01-15T15:42:15;93479.66;;;11.03;nan
15056;BME280;7626;42.674;23.284;2024-01-15T15:44:47;93485.31;;;10.17;nan
15056;BME280;7626;42.674;23.284;2024-01-15T15:47:16;93464.84;;;9.58;nan
15056;BME280;7626;42.674;23.284;2024-01-15T15:49:45;93461.78;;;9.35;nan
15056;BME280;7626;42.674;23.284;2024-01-15T15:52:12;93480.75;;;9.16;nan
15056;BME280;7626;42.674;23.284;2024-01-15T15:54:41;93490.16;;;9.07;nan
15056;BME280;7626;42.674;23.284;2024-01-15T15:57:08;93476.28;;;8.98;nan
15056;BME280;7626;42.674;23.284;2024-01-15T15:59:36;93472.06;;;8.97;nan
15056;BME280;7626;42.674;23.284;2024-01-15T16:02:05;93461.47;;;8.91;nan
15056;BME280;7626;42.674;23.284;2024-01-15T16:04:33;93476.16;;;8.90;nan
15056;BME280;7626;42.674;23.284;2024-01-15T16:07:00;93469.09;;;8.92;nan
15056;BME280;7626;42.674;23.284;2024-01-15T16:09:28;93436.16;;;8.84;nan
15056;BME280;7626;42.674;23.284;2024-01-15T16:12:00;93450.75;;;8.76;nan
15056;BME280;7626;42.674;23.284;2024-01-15T16:14:38;93453.06;;;8.79;nan
15056;BME280;7626;42.674;23.284;2024-01-15T16:17:08;93454.41;;;8.83;nan
15056;BME280;7626;42.674;23.284;2024-01-15T16:19:36;93432.25;;;8.80;nan
15056;BME280;7626;42.674;23.284;2024-01-15T16:22:05;93452.13;;;8.80;nan
15056;BME280;7626;42.674;23.284;2024-01-15T16:24:35;93452.50;;;8.75;nan
15056;BME280;7626;42.674;23.284;2024-01-15T16:27:04;93448.28;;;8.74;nan